sensor_id;sensor_type;location;lat;lon;timestamp;P1;durP1;ratioP1;P2;durP2;ratioP2
12848;SDS011;6493;50.928;7.172;2022-12-18T00:03:39;7.97;;;4.90;;
12848;SDS011;6493;50.928;7.172;2022-12-18T00:08:46;6.63;;;4.30;;
12848;SDS011;6493;50.928;7.172;2022-12-18T00:13:50;7.83;;;5.30;;
12848;SDS011;6493;50.928;7.172;2022-12-18T00:18:56;11.67;;;6.47;;
12848;SDS011;6493;50.928;7.172;2022-12-18T00:24:00;8.97;;;5.90;;
12848;SDS011;6493;50.928;7.172;2022-12-18T00:29:05;8.07;;;4.87;;
12848;SDS011;6493;50.928;7.172;2022-12-18T00:34:11;8.53;;;5.17;;
12848;SDS011;6493;50.928;7.172;2022-12-18T00:39:16;7.03;;;4.70;;
12848;SDS011;6493;50.928;7.172;2022-12-18T00:44:19;8.47;;;5.57;;
12848;SDS011;6493;50.928;7.172;2022-12-18T00:49:26;9.20;;;5.67;;
12848;SDS011;6493;50.928;7.172;2022-12-18T00:54:30;9.33;;;5.83;;
12848;SDS011;6493;50.928;7.172;2022-12-18T00:59:34;9.13;;;5.23;;
12848;SDS011;6493;50.928;7.172;2022-12-18T01:04:39;7.53;;;4.80;;
12848;SDS011;6493;50.928;7.172;2022-12-18T01:09:43;8.23;;;5.40;;
12848;SDS011;6493;50.928;7.172;2022-12-18T01:14:47;8.83;;;5.47;;
12848;SDS011;6493;50.928;7.172;2022-12-18T01:19:52;7.90;;;4.97;;
12848;SDS011;6493;50.928;7.172;2022-12-18T01:24:56;7.60;;;4.63;;
12848;SDS011;6493;50.928;7.172;2022-12-18T01:30:00;6.17;;;4.17;;
12848;SDS011;6493;50.928;7.172;2022-12-18T01:35:06;5.67;;;3.80;;
12848;SDS011;6493;50.928;7.172;2022-12-18T01:40:10;5.77;;;3.87;;
12848;SDS011;6493;50.928;7.172;2022-12-18T01:45:22;6.80;;;4.53;;
12848;SDS011;6493;50.928;7.172;2022-12-18T01:50:30;6.63;;;4.57;;
12848;SDS011;6493;50.928;7.172;2022-12-18T01:55:37;6.03;;;4.40;;
12848;SDS011;6493;50.928;7.172;2022-12-18T02:00:45;6.33;;;4.47;;
12848;SDS011;6493;50.928;7.172;2022-12-18T02:05:51;7.50;;;4.10;;
12848;SDS011;6493;50.928;7.172;2022-12-18T02:11:03;4.87;;;3.73;;
12848;SDS011;6493;50.928;7.172;2022-12-18T02:16:15;5.63;;;4.33;;
12848;SDS011;6493;50.928;7.172;2022-12-18T02:21:30;7.27;;;4.60;;
12848;SDS011;6493;50.928;7.172;2022-12-18T02:26:42;5.23;;;3.60;;
12848;SDS011;6493;50.928;7.172;2022-12-18T02:31:50;5.83;;;3.80;;
12848;SDS011;6493;50.928;7.172;2022-12-18T02:36:57;7.67;;;4.53;;
12848;SDS011;6493;50.928;7.172;2022-12-18T02:42:06;6.67;;;4.77;;
12848;SDS011;6493;50.928;7.172;2022-12-18T02:47:10;6.10;;;3.90;;
12848;SDS011;6493;50.928;7.172;2022-12-18T02:52:16;7.60;;;4.70;;
12848;SDS011;6493;50.928;7.172;2022-12-18T02:57:33;6.07;;;4.23;;
12848;SDS011;6493;50.928;7.172;2022-12-18T03:02:41;6.83;;;4.20;;
12848;SDS011;6493;50.928;7.172;2022-12-18T03:07:51;8.03;;;4.50;;
12848;SDS011;6493;50.928;7.172;2022-12-18T03:13:06;6.23;;;3.90;;
12848;SDS011;6493;50.928;7.172;2022-12-18T03:18:13;6.07;;;4.17;;
12848;SDS011;6493;50.928;7.172;2022-12-18T03:23:22;6.40;;;4.00;;
12848;SDS011;6493;50.928;7.172;2022-12-18T03:28:42;6.43;;;4.20;;
12848;SDS011;6493;50.928;7.172;2022-12-18T03:35:23;6.67;;;4.27;;
12848;SDS011;6493;50.928;7.172;2022-12-18T03:42:06;6.20;;;4.10;;
12848;SDS011;6493;50.928;7.172;2022-12-18T03:48:51;6.47;;;3.97;;
12848;SDS011;6493;50.928;7.172;2022-12-18T03:55:33;5.40;;;3.50;;
12848;SDS011;6493;50.928;7.172;2022-12-18T04:02:12;6.20;;;3.97;;
12848;SDS011;6493;50.928;7.172;2022-12-18T04:08:54;4.30;;;3.23;;
12848;SDS011;6493;50.928;7.172;2022-12-18T04:15:31;5.60;;;3.77;;
12848;SDS011;6493;50.928;7.172;2022-12-18T04:22:12;5.93;;;3.50;;
12848;SDS011;6493;50.928;7.172;2022-12-18T04:29:17;5.13;;;3.20;;
12848;SDS011;6493;50.928;7.172;2022-12-18T04:35:54;6.13;;;3.70;;
12848;SDS011;6493;50.928;7.172;2022-12-18T04:42:32;5.73;;;3.47;;
12848;SDS011;6493;50.928;7.172;2022-12-18T04:49:10;4.50;;;3.30;;
12848;SDS011;6493;50.928;7.172;2022-12-18T04:55:47;7.40;;;4.80;;
12848;SDS011;6493;50.928;7.172;2022-12-18T05:02:24;7.30;;;4.20;;
12848;SDS011;6493;50.928;7.172;2022-12-18T05:09:04;6.77;;;4.23;;
12848;SDS011;6493;50.928;7.172;2022-12-18T05:15:40;6.97;;;4.57;;
12848;SDS011;6493;50.928;7.172;2022-12-18T05:22:17;5.83;;;4.60;;
12848;SDS011;6493;50.928;7.172;2022-12-18T05:28:57;8.17;;;5.03;;
12848;SDS011;6493;50.928;7.172;2022-12-18T05:35:33;7.00;;;5.07;;
12848;SDS011;6493;50.928;7.172;2022-12-18T05:42:10;7.40;;;4.47;;
12848;SDS011;6493;50.928;7.172;2022-12-18T05:48:49;5.93;;;4.17;;
12848;SDS011;6493;50.928;7.172;2022-12-18T05:55:25;6.80;;;4.10;;
12848;SDS011;6493;50.928;7.172;2022-12-18T06:02:02;5.80;;;3.73;;
12848;SDS011;6493;50.928;7.172;2022-12-18T06:08:42;5.83;;;4.17;;
12848;SDS011;6493;50.928;7.172;2022-12-18T06:15:19;5.20;;;3.67;;
12848;SDS011;6493;50.928;7.172;2022-12-18T06:21:56;8.03;;;4.27;;
12848;SDS011;6493;50.928;7.172;2022-12-18T06:28:35;7.20;;;5.20;;
12848;SDS011;6493;50.928;7.172;2022-12-18T06:35:11;9.27;;;5.70;;
12848;SDS011;6493;50.928;7.172;2022-12-18T06:41:48;7.20;;;4.63;;
12848;SDS011;6493;50.928;7.172;2022-12-18T06:48:28;8.60;;;4.50;;
12848;SDS011;6493;50.928;7.172;2022-12-18T06:55:05;10.37;;;5.47;;
12848;SDS011;6493;50.928;7.172;2022-12-18T07:01:43;6.63;;;4.70;;
12848;SDS011;6493;50.928;7.172;2022-12-18T07:08:23;8.03;;;5.43;;
12848;SDS011;6493;50.928;7.172;2022-12-18T07:15:00;7.73;;;4.93;;
12848;SDS011;6493;50.928;7.172;2022-12-18T07:21:38;8.77;;;6.10;;
12848;SDS011;6493;50.928;7.172;2022-12-18T07:28:18;7.77;;;5.53;;
12848;SDS011;6493;50.928;7.172;2022-12-18T07:34:54;11.43;;;6.20;;
12848;SDS011;6493;50.928;7.172;2022-12-18T07:41:32;11.23;;;6.53;;
12848;SDS011;6493;50.928;7.172;2022-12-18T07:48:12;8.63;;;5.60;;
12848;SDS011;6493;50.928;7.172;2022-12-18T07:54:48;8.57;;;6.37;;
12848;SDS011;6493;50.928;7.172;2022-12-18T08:01:25;9.70;;;5.93;;
12848;SDS011;6493;50.928;7.172;2022-12-18T08:08:04;8.83;;;5.73;;
12848;SDS011;6493;50.928;7.172;2022-12-18T08:14:41;9.80;;;5.90;;
12848;SDS011;6493;50.928;7.172;2022-12-18T08:21:19;8.83;;;6.13;;
12848;SDS011;6493;50.928;7.172;2022-12-18T08:28:00;7.53;;;5.20;;
12848;SDS011;6493;50.928;7.172;2022-12-18T08:34:36;8.60;;;5.37;;
12848;SDS011;6493;50.928;7.172;2022-12-18T08:41:14;9.20;;;6.23;;
12848;SDS011;6493;50.928;7.172;2022-12-18T08:47:54;9.17;;;6.20;;
12848;SDS011;6493;50.928;7.172;2022-12-18T08:54:31;9.80;;;5.73;;
12848;SDS011;6493;50.928;7.172;2022-12-18T09:01:09;7.67;;;5.40;;
12848;SDS011;6493;50.928;7.172;2022-12-18T09:07:49;8.53;;;6.73;;
12848;SDS011;6493;50.928;7.172;2022-12-18T09:14:05;9.23;;;6.47;;
12848;SDS011;6493;50.928;7.172;2022-12-18T09:20:22;8.60;;;5.73;;
12848;SDS011;6493;50.928;7.172;2022-12-18T09:26:40;9.23;;;6.17;;
12848;SDS011;6493;50.928;7.172;2022-12-18T09:32:58;9.13;;;5.90;;
12848;SDS011;6493;50.928;7.172;2022-12-18T09:39:15;8.27;;;6.10;;
12848;SDS011;6493;50.928;7.172;2022-12-18T09:45:37;9.97;;;6.90;;
12848;SDS011;6493;50.928;7.172;2022-12-18T09:50:45;8.90;;;6.00;;
12848;SDS011;6493;50.928;7.172;2022-12-18T09:55:50;7.93;;;6.03;;
12848;SDS011;6493;50.928;7.172;2022-12-18T10:00:57;8.83;;;5.97;;
12848;SDS011;6493;50.928;7.172;2022-12-18T10:06:02;9.63;;;6.63;;
12848;SDS011;6493;50.928;7.172;2022-12-18T10:11:16;8.67;;;6.63;;
12848;SDS011;6493;50.928;7.172;2022-12-18T10:16:34;11.27;;;6.97;;
12848;SDS011;6493;50.928;7.172;2022-12-18T10:21:43;10.13;;;5.97;;
12848;SDS011;6493;50.928;7.172;2022-12-18T10:26:54;8.20;;;6.10;;
12848;SDS011;6493;50.928;7.172;2022-12-18T10:32:04;9.33;;;6.40;;
12848;SDS011;6493;50.928;7.172;2022-12-18T10:37:11;7.97;;;6.13;;
12848;SDS011;6493;50.928;7.172;2022-12-18T10:42:19;11.17;;;7.50;;
12848;SDS011;6493;50.928;7.172;2022-12-18T10:47:24;9.10;;;6.37;;
12848;SDS011;6493;50.928;7.172;2022-12-18T10:52:27;7.73;;;5.23;;
12848;SDS011;6493;50.928;7.172;2022-12-18T10:57:33;10.43;;;6.90;;
12848;SDS011;6493;50.928;7.172;2022-12-18T11:02:40;8.60;;;5.80;;
12848;SDS011;6493;50.928;7.172;2022-12-18T11:07:47;9.67;;;6.80;;
12848;SDS011;6493;50.928;7.172;2022-12-18T11:12:52;7.97;;;6.20;;
12848;SDS011;6493;50.928;7.172;2022-12-18T11:17:57;11.80;;;8.30;;
12848;SDS011;6493;50.928;7.172;2022-12-18T11:23:02;11.53;;;7.20;;
12848;SDS011;6493;50.928;7.172;2022-12-18T11:28:25;11.23;;;7.47;;
12848;SDS011;6493;50.928;7.172;2022-12-18T11:33:39;10.20;;;7.47;;
12848;SDS011;6493;50.928;7.172;2022-12-18T11:39:09;12.00;;;8.33;;
12848;SDS011;6493;50.928;7.172;2022-12-18T11:44:19;13.13;;;8.80;;
12848;SDS011;6493;50.928;7.172;2022-12-18T11:49:32;12.17;;;8.67;;
12848;SDS011;6493;50.928;7.172;2022-12-18T11:54:37;13.43;;;8.43;;
12848;SDS011;6493;50.928;7.172;2022-12-18T11:59:42;12.17;;;8.17;;
12848;SDS011;6493;50.928;7.172;2022-12-18T12:05:06;12.37;;;8.90;;
12848;SDS011;6493;50.928;7.172;2022-12-18T12:10:27;13.57;;;8.33;;
12848;SDS011;6493;50.928;7.172;2022-12-18T12:15:42;15.93;;;10.03;;
12848;SDS011;6493;50.928;7.172;2022-12-18T12:20:54;14.67;;;9.03;;
12848;SDS011;6493;50.928;7.172;2022-12-18T12:26:04;14.13;;;10.00;;
12848;SDS011;6493;50.928;7.172;2022-12-18T12:31:11;14.50;;;10.07;;
12848;SDS011;6493;50.928;7.172;2022-12-18T12:36:27;13.33;;;9.97;;
12848;SDS011;6493;50.928;7.172;2022-12-18T12:41:43;16.70;;;11.07;;
12848;SDS011;6493;50.928;7.172;2022-12-18T12:47:10;16.27;;;10.97;;
12848;SDS011;6493;50.928;7.172;2022-12-18T12:52:21;18.43;;;12.27;;
12848;SDS011;6493;50.928;7.172;2022-12-18T12:57:33;15.97;;;10.67;;
12848;SDS011;6493;50.928;7.172;2022-12-18T13:02:42;17.80;;;11.37;;
12848;SDS011;6493;50.928;7.172;2022-12-18T13:07:52;16.83;;;11.63;;
12848;SDS011;6493;50.928;7.172;2022-12-18T13:13:00;15.50;;;10.60;;
12848;SDS011;6493;50.928;7.172;2022-12-18T13:18:14;18.33;;;12.07;;
12848;SDS011;6493;50.928;7.172;2022-12-18T13:23:31;19.53;;;12.80;;
12848;SDS011;6493;50.928;7.172;2022-12-18T13:28:52;16.43;;;11.97;;
12848;SDS011;6493;50.928;7.172;2022-12-18T13:34:08;17.57;;;11.40;;
12848;SDS011;6493;50.928;7.172;2022-12-18T13:39:34;17.43;;;11.67;;
12848;SDS011;6493;50.928;7.172;2022-12-18T13:44:38;17.93;;;11.53;;
12848;SDS011;6493;50.928;7.172;2022-12-18T13:49:43;17.20;;;11.90;;
12848;SDS011;6493;50.928;7.172;2022-12-18T13:54:50;15.33;;;10.00;;
12848;SDS011;6493;50.928;7.172;2022-12-18T13:59:56;15.93;;;10.27;;
12848;SDS011;6493;50.928;7.172;2022-12-18T14:05:00;17.57;;;11.20;;
12848;SDS011;6493;50.928;7.172;2022-12-18T14:10:12;17.13;;;10.97;;
12848;SDS011;6493;50.928;7.172;2022-12-18T14:15:39;18.50;;;11.90;;
12848;SDS011;6493;50.928;7.172;2022-12-18T14:20:44;20.47;;;12.50;;
12848;SDS011;6493;50.928;7.172;2022-12-18T14:25:55;20.40;;;13.73;;
12848;SDS011;6493;50.928;7.172;2022-12-18T14:31:15;19.53;;;13.27;;
12848;SDS011;6493;50.928;7.172;2022-12-18T14:36:22;19.07;;;12.33;;
12848;SDS011;6493;50.928;7.172;2022-12-18T14:41:27;19.60;;;12.90;;
12848;SDS011;6493;50.928;7.172;2022-12-18T14:46:32;17.07;;;11.93;;
12848;SDS011;6493;50.928;7.172;2022-12-18T14:51:39;18.83;;;12.97;;
12848;SDS011;6493;50.928;7.172;2022-12-18T14:56:51;22.07;;;14.07;;
12848;SDS011;6493;50.928;7.172;2022-12-18T15:02:01;19.57;;;12.93;;
12848;SDS011;6493;50.928;7.172;2022-12-18T15:07:13;20.00;;;12.97;;
12848;SDS011;6493;50.928;7.172;2022-12-18T15:12:27;17.27;;;11.93;;
12848;SDS011;6493;50.928;7.172;2022-12-18T15:17:36;20.53;;;13.73;;
12848;SDS011;6493;50.928;7.172;2022-12-18T15:22:39;21.73;;;13.63;;
12848;SDS011;6493;50.928;7.172;2022-12-18T15:27:46;24.13;;;14.83;;
12848;SDS011;6493;50.928;7.172;2022-12-18T15:32:50;20.90;;;14.20;;
12848;SDS011;6493;50.928;7.172;2022-12-18T15:37:56;21.37;;;14.03;;
12848;SDS011;6493;50.928;7.172;2022-12-18T15:43:01;20.37;;;13.70;;
12848;SDS011;6493;50.928;7.172;2022-12-18T15:48:25;23.20;;;14.93;;
12848;SDS011;6493;50.928;7.172;2022-12-18T15:53:29;21.70;;;14.17;;
12848;SDS011;6493;50.928;7.172;2022-12-18T15:58:36;21.53;;;14.80;;
12848;SDS011;6493;50.928;7.172;2022-12-18T16:03:40;22.27;;;14.60;;
12848;SDS011;6493;50.928;7.172;2022-12-18T16:08:45;24.80;;;15.47;;
12848;SDS011;6493;50.928;7.172;2022-12-18T16:13:50;26.60;;;15.83;;
12848;SDS011;6493;50.928;7.172;2022-12-18T16:18:54;20.73;;;13.83;;
12848;SDS011;6493;50.928;7.172;2022-12-18T16:23:58;23.97;;;15.23;;
12848;SDS011;6493;50.928;7.172;2022-12-18T16:29:03;23.80;;;16.93;;
12848;SDS011;6493;50.928;7.172;2022-12-18T16:34:14;21.50;;;15.03;;
12848;SDS011;6493;50.928;7.172;2022-12-18T16:39:25;25.13;;;16.07;;
12848;SDS011;6493;50.928;7.172;2022-12-18T16:44:31;27.43;;;16.53;;
12848;SDS011;6493;50.928;7.172;2022-12-18T16:49:34;27.30;;;18.50;;
12848;SDS011;6493;50.928;7.172;2022-12-18T16:54:38;26.50;;;17.33;;
12848;SDS011;6493;50.928;7.172;2022-12-18T16:59:43;23.73;;;16.23;;
12848;SDS011;6493;50.928;7.172;2022-12-18T17:04:48;28.43;;;17.93;;
12848;SDS011;6493;50.928;7.172;2022-12-18T17:09:51;26.20;;;17.37;;
12848;SDS011;6493;50.928;7.172;2022-12-18T17:14:57;27.43;;;17.53;;
12848;SDS011;6493;50.928;7.172;2022-12-18T17:20:00;26.17;;;15.83;;
12848;SDS011;6493;50.928;7.172;2022-12-18T17:25:04;30.57;;;18.83;;
12848;SDS011;6493;50.928;7.172;2022-12-18T17:30:10;28.20;;;16.30;;
12848;SDS011;6493;50.928;7.172;2022-12-18T17:35:14;25.43;;;17.17;;
12848;SDS011;6493;50.928;7.172;2022-12-18T17:40:18;32.70;;;19.50;;
12848;SDS011;6493;50.928;7.172;2022-12-18T17:45:23;24.03;;;16.23;;
12848;SDS011;6493;50.928;7.172;2022-12-18T17:50:27;31.43;;;19.03;;
12848;SDS011;6493;50.928;7.172;2022-12-18T17:55:30;29.80;;;18.90;;
12848;SDS011;6493;50.928;7.172;2022-12-18T18:00:35;32.17;;;18.50;;
12848;SDS011;6493;50.928;7.172;2022-12-18T18:05:41;29.07;;;17.87;;
12848;SDS011;6493;50.928;7.172;2022-12-18T18:10:45;31.55;;;19.70;;
12848;SDS011;6493;50.928;7.172;2022-12-18T18:15:55;26.37;;;17.20;;
12848;SDS011;6493;50.928;7.172;2022-12-18T18:21:02;32.80;;;20.40;;
12848;SDS011;6493;50.928;7.172;2022-12-18T18:26:10;31.40;;;19.93;;
12848;SDS011;6493;50.928;7.172;2022-12-18T18:31:15;30.90;;;18.80;;
12848;SDS011;6493;50.928;7.172;2022-12-18T18:36:19;28.83;;;16.77;;
12848;SDS011;6493;50.928;7.172;2022-12-18T18:41:23;30.10;;;19.03;;
12848;SDS011;6493;50.928;7.172;2022-12-18T18:46:28;27.30;;;17.30;;
12848;SDS011;6493;50.928;7.172;2022-12-18T18:51:32;32.70;;;19.70;;
12848;SDS011;6493;50.928;7.172;2022-12-18T18:56:36;26.03;;;16.47;;
12848;SDS011;6493;50.928;7.172;2022-12-18T19:02:01;32.83;;;19.03;;
12848;SDS011;6493;50.928;7.172;2022-12-18T19:07:06;29.60;;;18.37;;
12848;SDS011;6493;50.928;7.172;2022-12-18T19:12:09;32.30;;;18.73;;
12848;SDS011;6493;50.928;7.172;2022-12-18T19:17:32;32.87;;;18.97;;
12848;SDS011;6493;50.928;7.172;2022-12-18T19:22:38;28.77;;;16.57;;
12848;SDS011;6493;50.928;7.172;2022-12-18T19:27:43;28.60;;;18.33;;
12848;SDS011;6493;50.928;7.172;2022-12-18T19:32:48;29.07;;;17.60;;
12848;SDS011;6493;50.928;7.172;2022-12-18T19:37:52;29.43;;;19.03;;
12848;SDS011;6493;50.928;7.172;2022-12-18T19:42:56;33.10;;;18.93;;
12848;SDS011;6493;50.928;7.172;2022-12-18T19:48:03;27.23;;;17.40;;
12848;SDS011;6493;50.928;7.172;2022-12-18T19:53:07;31.83;;;19.20;;
12848;SDS011;6493;50.928;7.172;2022-12-18T19:58:11;30.87;;;18.17;;
12848;SDS011;6493;50.928;7.172;2022-12-18T20:03:16;32.70;;;20.17;;
12848;SDS011;6493;50.928;7.172;2022-12-18T20:08:31;34.37;;;20.30;;
12848;SDS011;6493;50.928;7.172;2022-12-18T20:13:35;36.07;;;19.27;;
12848;SDS011;6493;50.928;7.172;2022-12-18T20:18:40;34.13;;;20.10;;
12848;SDS011;6493;50.928;7.172;2022-12-18T20:23:45;31.27;;;17.97;;
12848;SDS011;6493;50.928;7.172;2022-12-18T20:28:48;31.17;;;19.77;;
12848;SDS011;6493;50.928;7.172;2022-12-18T20:33:56;29.07;;;18.30;;
12848;SDS011;6493;50.928;7.172;2022-12-18T20:39:02;28.87;;;17.83;;
12848;SDS011;6493;50.928;7.172;2022-12-18T20:44:11;30.50;;;17.80;;
12848;SDS011;6493;50.928;7.172;2022-12-18T20:49:26;29.40;;;18.50;;
12848;SDS011;6493;50.928;7.172;2022-12-18T20:54:30;28.80;;;17.37;;
12848;SDS011;6493;50.928;7.172;2022-12-18T20:59:33;29.50;;;17.77;;
12848;SDS011;6493;50.928;7.172;2022-12-18T21:04:38;31.83;;;17.63;;
12848;SDS011;6493;50.928;7.172;2022-12-18T21:09:42;29.83;;;18.23;;
12848;SDS011;6493;50.928;7.172;2022-12-18T21:14:46;29.00;;;17.43;;
12848;SDS011;6493;50.928;7.172;2022-12-18T21:19:52;32.13;;;19.03;;
12848;SDS011;6493;50.928;7.172;2022-12-18T21:24:56;30.40;;;19.00;;
12848;SDS011;6493;50.928;7.172;2022-12-18T21:29:59;32.23;;;19.13;;
12848;SDS011;6493;50.928;7.172;2022-12-18T21:35:05;25.47;;;16.27;;
12848;SDS011;6493;50.928;7.172;2022-12-18T21:40:09;29.70;;;17.77;;
12848;SDS011;6493;50.928;7.172;2022-12-18T21:45:13;27.17;;;17.73;;
12848;SDS011;6493;50.928;7.172;2022-12-18T21:50:19;30.47;;;18.27;;
12848;SDS011;6493;50.928;7.172;2022-12-18T21:55:22;33.30;;;18.30;;
12848;SDS011;6493;50.928;7.172;2022-12-18T22:00:26;27.17;;;17.30;;
12848;SDS011;6493;50.928;7.172;2022-12-18T22:05:31;32.97;;;18.90;;
12848;SDS011;6493;50.928;7.172;2022-12-18T22:10:35;32.40;;;19.77;;
12848;SDS011;6493;50.928;7.172;2022-12-18T22:15:39;31.60;;;18.37;;
12848;SDS011;6493;50.928;7.172;2022-12-18T22:20:44;34.03;;;19.20;;
12848;SDS011;6493;50.928;7.172;2022-12-18T22:25:48;32.60;;;20.00;;
12848;SDS011;6493;50.928;7.172;2022-12-18T22:30:52;29.50;;;18.53;;
12848;SDS011;6493;50.928;7.172;2022-12-18T22:36:06;30.20;;;19.00;;
12848;SDS011;6493;50.928;7.172;2022-12-18T22:41:10;31.60;;;19.63;;
12848;SDS011;6493;50.928;7.172;2022-12-18T22:46:14;29.67;;;18.50;;
12848;SDS011;6493;50.928;7.172;2022-12-18T22:51:23;27.63;;;16.73;;
12848;SDS011;6493;50.928;7.172;2022-12-18T22:56:27;30.23;;;18.77;;
12848;SDS011;6493;50.928;7.172;2022-12-18T23:01:31;34.53;;;20.83;;
12848;SDS011;6493;50.928;7.172;2022-12-18T23:06:38;39.80;;;22.13;;
12848;SDS011;6493;50.928;7.172;2022-12-18T23:11:42;32.33;;;20.17;;
12848;SDS011;6493;50.928;7.172;2022-12-18T23:16:46;28.37;;;17.80;;
12848;SDS011;6493;50.928;7.172;2022-12-18T23:21:54;27.97;;;17.97;;
12848;SDS011;6493;50.928;7.172;2022-12-18T23:26:59;30.10;;;18.03;;
12848;SDS011;6493;50.928;7.172;2022-12-18T23:32:06;33.90;;;20.17;;
12848;SDS011;6493;50.928;7.172;2022-12-18T23:37:11;32.93;;;20.93;;
12848;SDS011;6493;50.928;7.172;2022-12-18T23:42:35;33.37;;;20.43;;
12848;SDS011;6493;50.928;7.172;2022-12-18T23:47:39;32.37;;;20.17;;
12848;SDS011;6493;50.928;7.172;2022-12-18T23:52:43;32.10;;;19.77;;
12848;SDS011;6493;50.928;7.172;2022-12-18T23:57:47;29.70;;;19.50;;
